createdAt,value
2023-08-02T00:00:20.319Z,17.38
2023-08-02T00:02:47.254Z,17.43
2023-08-02T00:05:14.479Z,17.39
2023-08-02T00:07:41.108Z,17.33
2023-08-02T00:10:17.139Z,17.29
2023-08-02T00:12:45.306Z,17.18
2023-08-02T00:15:12.302Z,17.12
2023-08-02T00:17:39.870Z,17.00
2023-08-02T00:20:10.411Z,17.05
2023-08-02T00:22:37.008Z,16.91
2023-08-02T00:25:04.313Z,16.95
2023-08-02T00:27:30.963Z,16.94
2023-08-02T00:29:58.996Z,16.88
2023-08-02T00:32:25.682Z,16.84
2023-08-02T00:34:52.337Z,16.72
2023-08-02T00:37:19.218Z,16.75
2023-08-02T00:39:50.467Z,16.61
2023-08-02T00:42:19.130Z,16.71
2023-08-02T00:44:48.010Z,16.56
2023-08-02T00:47:17.601Z,16.68
2023-08-02T00:49:45.598Z,16.51
2023-08-02T00:52:12.739Z,16.51
2023-08-02T00:54:39.571Z,16.59
2023-08-02T00:57:06.469Z,16.59
2023-08-02T00:59:33.538Z,16.48
2023-08-02T01:02:01.299Z,16.51
2023-08-02T01:04:29.427Z,16.48
2023-08-02T01:07:04.251Z,16.47
2023-08-02T01:09:38.996Z,16.35
2023-08-02T01:12:09.991Z,16.40
2023-08-02T01:14:54.337Z,16.37
2023-08-02T01:17:22.965Z,16.33
2023-08-02T01:19:51.689Z,16.34
2023-08-02T01:22:19.786Z,16.30
2023-08-02T01:24:46.942Z,16.23
2023-08-02T01:27:17.532Z,16.21
2023-08-02T01:29:50.699Z,16.25
2023-08-02T01:32:20.238Z,16.21
2023-08-02T01:34:48.232Z,16.18
2023-08-02T01:37:14.989Z,16.24
2023-08-02T01:39:43.037Z,16.36
2023-08-02T01:42:11.813Z,16.39
2023-08-02T01:44:38.446Z,16.50
2023-08-02T01:47:05.263Z,16.57
2023-08-02T01:49:31.902Z,16.59
2023-08-02T01:51:58.600Z,16.65
2023-08-02T01:54:25.701Z,16.77
2023-08-02T01:56:53.737Z,16.83
2023-08-02T01:59:20.662Z,16.94
2023-08-02T02:01:47.329Z,17.11
2023-08-02T02:04:20.182Z,17.01
2023-08-02T02:06:47.030Z,17.20
2023-08-02T02:09:13.953Z,17.18
2023-08-02T02:11:43.011Z,17.23
2023-08-02T02:14:13.417Z,17.19
2023-08-02T02:16:40.235Z,17.17
2023-08-02T02:19:07.150Z,17.33
2023-08-02T02:21:36.994Z,17.26
2023-08-02T02:24:04.142Z,17.11
2023-08-02T02:26:30.939Z,17.27
2023-08-02T02:28:57.529Z,17.39
2023-08-02T02:31:25.568Z,17.48
2023-08-02T02:33:52.358Z,17.45
2023-08-02T02:36:19.352Z,17.55
2023-08-02T02:38:46.526Z,17.58
2023-08-02T02:41:13.241Z,17.60
2023-08-02T02:43:39.828Z,17.52
2023-08-02T02:46:07.023Z,17.56
2023-08-02T02:48:35.335Z,17.45
2023-08-02T02:51:02.107Z,17.56
2023-08-02T02:53:28.726Z,17.46
2023-08-02T02:55:55.389Z,17.60
2023-08-02T02:58:22.110Z,17.54
2023-08-02T03:00:49.144Z,17.49
2023-08-02T03:03:15.899Z,17.45
2023-08-02T03:05:46.872Z,17.59
2023-08-02T03:08:15.391Z,17.54
2023-08-02T03:10:42.090Z,17.53
2023-08-02T03:13:08.818Z,17.52
2023-08-02T03:15:37.755Z,17.56
2023-08-02T03:18:05.588Z,17.60
2023-08-02T03:20:33.720Z,17.63
2023-08-02T03:23:01.814Z,17.63
2023-08-02T03:25:29.471Z,17.63
2023-08-02T03:27:56.500Z,17.63
2023-08-02T03:30:23.431Z,17.73
2023-08-02T03:32:50.285Z,17.64
2023-08-02T03:35:17.027Z,17.59
2023-08-02T03:37:43.713Z,17.65
2023-08-02T03:40:12.653Z,17.67
2023-08-02T03:42:39.855Z,17.71
2023-08-02T03:45:07.654Z,17.74
2023-08-02T03:47:43.381Z,17.98
2023-08-02T03:50:10.361Z,17.94
2023-08-02T03:52:37.162Z,17.98
2023-08-02T03:55:04.640Z,17.98
2023-08-02T03:57:32.615Z,18.01
2023-08-02T03:59:59.266Z,17.98
2023-08-02T04:02:25.945Z,17.90
2023-08-02T04:04:53.333Z,17.95
2023-08-02T04:07:19.977Z,17.98
2023-08-02T04:09:46.575Z,17.92
2023-08-02T04:12:13.628Z,17.94
2023-08-02T04:14:41.714Z,18.07
2023-08-02T04:17:08.306Z,17.90
2023-08-02T04:19:34.947Z,17.72
2023-08-02T04:22:01.892Z,17.97
2023-08-02T04:24:28.482Z,17.98
2023-08-02T04:26:55.270Z,18.07
2023-08-02T04:29:21.891Z,17.94
2023-08-02T04:31:50.176Z,18.07
2023-08-02T04:34:16.901Z,17.94
2023-08-02T04:36:43.843Z,18.07
2023-08-02T04:39:10.839Z,18.03
2023-08-02T04:41:37.610Z,18.10
2023-08-02T04:44:04.466Z,18.09
2023-08-02T04:46:31.411Z,17.97
2023-08-02T04:48:59.499Z,17.94
2023-08-02T04:51:26.399Z,18.01
2023-08-02T04:53:53.016Z,18.06
2023-08-02T04:56:19.593Z,18.01
2023-08-02T04:58:46.775Z,18.17
2023-08-02T05:01:13.451Z,18.25
2023-08-02T05:03:40.089Z,18.15
2023-08-02T05:06:08.301Z,18.21
2023-08-02T05:08:37.328Z,18.18
2023-08-02T05:11:05.763Z,18.08
2023-08-02T05:13:32.909Z,17.98
2023-08-02T05:15:59.599Z,18.14
2023-08-02T05:18:26.427Z,18.24
2023-08-02T05:20:53.491Z,18.01
2023-08-02T05:23:26.889Z,18.33
2023-08-02T05:26:00.435Z,18.29
2023-08-02T05:28:32.670Z,18.19
2023-08-02T05:31:04.982Z,18.35
2023-08-02T05:33:31.771Z,18.23
2023-08-02T05:36:01.359Z,18.51
2023-08-02T05:38:35.975Z,18.48
2023-08-02T05:41:04.304Z,18.44
2023-08-02T05:43:31.172Z,18.61
2023-08-02T05:46:07.996Z,18.41
2023-08-02T05:48:34.709Z,18.58
2023-08-02T05:51:11.767Z,18.32
2023-08-02T05:53:46.938Z,18.55
2023-08-02T05:56:13.834Z,18.42
2023-08-02T05:58:40.561Z,18.43
2023-08-02T06:01:07.955Z,18.56
2023-08-02T06:03:37.781Z,18.55
2023-08-02T06:06:07.359Z,18.68
2023-08-02T06:08:34.384Z,18.70
2023-08-02T06:11:02.479Z,18.46
2023-08-02T06:13:30.072Z,18.48
2023-08-02T06:15:56.901Z,18.57
2023-08-02T06:18:26.490Z,18.83
2023-08-02T06:20:53.265Z,18.76
2023-08-02T06:23:21.702Z,18.77
2023-08-02T06:25:50.363Z,18.81
2023-08-02T06:28:22.392Z,18.93
2023-08-02T06:30:49.442Z,18.96
2023-08-02T06:33:16.210Z,19.06
2023-08-02T06:35:43.146Z,18.77
2023-08-02T06:38:10.079Z,18.63
2023-08-02T06:40:37.133Z,18.75
2023-08-02T06:43:10.091Z,18.77
2023-08-02T06:45:41.963Z,19.27
2023-08-02T06:48:09.156Z,19.28
2023-08-02T06:50:40.447Z,19.14
2023-08-02T06:53:07.695Z,19.27
2023-08-02T06:55:37.287Z,19.14
2023-08-02T06:58:06.045Z,19.18
2023-08-02T07:00:35.919Z,19.34
2023-08-02T07:03:04.554Z,19.55
2023-08-02T07:05:34.987Z,19.53
2023-08-02T07:08:03.563Z,19.38
2023-08-02T07:10:32.319Z,19.43
2023-08-02T07:12:58.935Z,19.42
2023-08-02T07:15:28.321Z,19.27
2023-08-02T07:17:55.097Z,19.15
2023-08-02T07:20:23.143Z,18.94
2023-08-02T07:22:49.770Z,18.90
2023-08-02T07:25:16.811Z,19.21
2023-08-02T07:27:43.454Z,19.15
2023-08-02T07:30:10.758Z,19.36
2023-08-02T07:32:37.579Z,19.59
2023-08-02T07:35:05.133Z,19.26
2023-08-02T07:37:33.139Z,19.76
2023-08-02T07:40:00.088Z,20.08
2023-08-02T07:42:26.748Z,20.54
2023-08-02T07:45:07.553Z,20.97
2023-08-02T07:47:34.661Z,21.08
2023-08-02T07:50:01.695Z,21.51
2023-08-02T07:52:28.905Z,21.48
2023-08-02T07:54:57.193Z,21.67
2023-08-02T07:57:25.227Z,21.80
2023-08-02T07:59:52.205Z,22.14
2023-08-02T08:02:19.639Z,22.65
2023-08-02T08:04:48.540Z,22.66
2023-08-02T08:07:15.267Z,23.02
2023-08-02T08:09:41.935Z,23.15
2023-08-02T08:12:12.947Z,22.93
2023-08-02T08:14:42.661Z,22.47
2023-08-02T08:17:09.467Z,22.34
2023-08-02T08:19:36.369Z,22.00
2023-08-02T08:22:03.157Z,21.45
2023-08-02T08:24:30.142Z,21.67
2023-08-02T08:26:56.816Z,21.76
2023-08-02T08:29:27.717Z,21.71
2023-08-02T08:31:54.634Z,21.57
2023-08-02T08:34:21.573Z,20.92
2023-08-02T08:36:51.679Z,20.86
2023-08-02T08:39:18.663Z,20.27
2023-08-02T08:41:45.449Z,20.33
2023-08-02T08:44:12.479Z,20.53
2023-08-02T08:46:41.863Z,20.70
2023-08-02T08:49:08.539Z,21.65
2023-08-02T08:51:36.277Z,22.01
2023-08-02T08:54:06.236Z,22.65
2023-08-02T08:56:36.903Z,22.63
2023-08-02T08:59:05.649Z,21.95
2023-08-02T09:01:32.628Z,21.55
2023-08-02T09:04:01.143Z,21.42
2023-08-02T09:06:28.917Z,21.11
2023-08-02T09:08:55.775Z,21.51
2023-08-02T09:11:22.486Z,22.01
2023-08-02T09:13:49.084Z,22.14
2023-08-02T09:16:16.921Z,22.40
2023-08-02T09:18:48.289Z,22.03
2023-08-02T09:21:21.081Z,21.89
2023-08-02T09:23:48.277Z,22.12
2023-08-02T09:26:17.093Z,22.30
2023-08-02T09:28:58.884Z,22.58
2023-08-02T09:31:26.583Z,22.56
2023-08-02T09:33:55.119Z,22.79
2023-08-02T09:36:24.368Z,23.31
2023-08-02T09:39:02.054Z,24.11
2023-08-02T09:43:59.578Z,23.56
2023-08-02T09:46:28.124Z,23.71
2023-08-02T09:48:54.962Z,23.62
2023-08-02T09:51:23.107Z,23.99
2023-08-02T09:53:58.698Z,23.85
2023-08-02T09:56:26.626Z,23.55
2023-08-02T09:58:55.134Z,22.75
2023-08-02T10:01:23.588Z,22.48
2023-08-02T10:03:53.453Z,22.70
2023-08-02T10:06:25.145Z,23.10
2023-08-02T10:08:57.264Z,23.25
2023-08-02T10:11:25.880Z,23.73
2023-08-02T10:13:54.816Z,23.93
2023-08-02T10:16:24.384Z,23.83
2023-08-02T10:18:52.127Z,23.43
2023-08-02T10:21:20.803Z,23.03
2023-08-02T10:23:55.799Z,22.53
2023-08-02T10:26:23.046Z,22.19
2023-08-02T10:28:50.549Z,21.61
2023-08-02T10:31:19.417Z,21.89
2023-08-02T10:33:46.096Z,22.59
2023-08-02T10:36:12.861Z,22.85
2023-08-02T10:38:52.422Z,23.04
2023-08-02T10:41:21.164Z,22.97
2023-08-02T10:44:10.049Z,23.10
2023-08-02T10:46:36.732Z,23.59
2023-08-02T10:49:35.844Z,23.58
2023-08-02T10:52:24.181Z,23.84
2023-08-02T10:55:15.212Z,24.76
2023-08-02T10:58:00.866Z,24.46
2023-08-02T11:00:29.759Z,24.06
2023-08-02T11:02:58.122Z,24.00
2023-08-02T11:05:38.961Z,24.42
2023-08-02T11:08:05.896Z,24.20
2023-08-02T11:10:33.950Z,24.24
2023-08-02T11:13:02.532Z,24.28
2023-08-02T11:15:29.786Z,24.16
2023-08-02T11:17:57.372Z,24.38
2023-08-02T11:20:25.747Z,24.90
2023-08-02T11:22:52.862Z,25.08
2023-08-02T11:25:40.752Z,25.43
2023-08-02T11:28:08.203Z,25.42
2023-08-02T11:30:35.097Z,25.62
2023-08-02T11:33:02.036Z,25.05
2023-08-02T11:35:29.053Z,24.91
2023-08-02T11:37:55.786Z,25.06
2023-08-02T11:40:26.736Z,25.30
2023-08-02T11:42:54.276Z,24.97
2023-08-02T11:45:32.601Z,25.41
2023-08-02T11:50:47.240Z,25.55
2023-08-02T11:53:14.031Z,25.54
2023-08-02T11:55:45.680Z,25.66
2023-08-02T11:58:12.646Z,26.24
2023-08-02T12:00:40.850Z,26.76
2023-08-02T12:03:15.071Z,27.20
2023-08-02T12:05:47.023Z,27.43
2023-08-02T12:08:15.516Z,27.78
2023-08-02T12:10:43.120Z,27.60
2023-08-02T12:13:11.081Z,26.88
2023-08-02T12:15:38.272Z,26.39
2023-08-02T12:18:08.041Z,26.47
2023-08-02T12:20:35.923Z,26.52
2023-08-02T12:23:02.732Z,26.58
2023-08-02T12:25:47.052Z,26.16
2023-08-02T12:28:16.921Z,25.46
2023-08-02T12:31:02.111Z,24.81
2023-08-02T12:33:30.530Z,24.85
2023-08-02T12:35:57.217Z,24.84
2023-08-02T12:38:24.057Z,24.90
2023-08-02T12:40:53.793Z,24.96
2023-08-02T12:43:20.407Z,24.45
2023-08-02T12:45:47.340Z,24.40
2023-08-02T12:48:14.132Z,24.35
2023-08-02T12:50:42.120Z,24.20
2023-08-02T12:53:09.066Z,23.68
2023-08-02T12:55:36.023Z,23.92
2023-08-02T12:58:04.463Z,24.23
2023-08-02T13:00:31.216Z,24.00
2023-08-02T13:02:58.290Z,23.95
2023-08-02T13:05:24.989Z,24.05
2023-08-02T13:07:55.818Z,24.34
2023-08-02T13:10:22.711Z,24.69
2023-08-02T13:12:49.340Z,25.08
2023-08-02T13:15:16.107Z,25.56
2023-08-02T13:17:43.135Z,26.00
2023-08-02T13:20:10.951Z,25.80
2023-08-02T13:22:37.857Z,26.10
2023-08-02T13:25:08.671Z,26.46
2023-08-02T13:27:35.365Z,26.09
2023-08-02T13:30:02.459Z,25.79
2023-08-02T13:32:29.243Z,25.60
2023-08-02T13:34:58.338Z,25.93
2023-08-02T13:37:25.929Z,26.20
2023-08-02T13:39:52.690Z,26.22
2023-08-02T13:42:20.743Z,26.16
2023-08-02T13:44:47.362Z,26.10
2023-08-02T13:47:14.375Z,25.71
2023-08-02T13:49:40.968Z,24.87
2023-08-02T13:52:15.211Z,25.22
2023-08-02T13:54:42.189Z,25.80
2023-08-02T13:57:08.793Z,25.81
2023-08-02T13:59:36.936Z,26.48
2023-08-02T14:02:03.650Z,26.66
2023-08-02T14:04:30.282Z,27.08
2023-08-02T14:06:56.963Z,27.08
2023-08-02T14:09:23.653Z,26.65
2023-08-02T14:11:50.601Z,26.47
2023-08-02T14:14:17.560Z,26.23
2023-08-02T14:16:47.676Z,25.84
2023-08-02T14:19:15.037Z,25.79
2023-08-02T14:21:41.665Z,25.77
2023-08-02T14:24:08.311Z,25.42
2023-08-02T14:26:37.038Z,25.37
2023-08-02T14:29:03.649Z,25.38
2023-08-02T14:31:30.361Z,25.41
2023-08-02T14:33:58.398Z,25.68
2023-08-02T14:36:25.091Z,26.24
2023-08-02T14:38:51.690Z,26.17
2023-08-02T14:41:18.266Z,26.36
2023-08-02T14:43:45.061Z,26.41
2023-08-02T14:46:11.759Z,26.15
2023-08-02T14:48:38.439Z,25.89
2023-08-02T14:51:06.418Z,26.82
2023-08-02T14:53:33.228Z,26.95
2023-08-02T14:55:59.806Z,26.58
2023-08-02T14:58:28.240Z,26.29
2023-08-02T15:00:54.867Z,26.37
2023-08-02T15:03:23.245Z,26.43
2023-08-02T15:05:50.099Z,26.98
2023-08-02T15:08:18.151Z,26.78
2023-08-02T15:10:45.111Z,26.37
2023-08-02T15:13:11.989Z,25.89
2023-08-02T15:15:38.628Z,26.02
2023-08-02T15:18:05.404Z,25.69
2023-08-02T15:20:32.037Z,25.71
2023-08-02T15:22:58.720Z,25.62
2023-08-02T15:25:26.928Z,25.44
2023-08-02T15:27:53.653Z,25.30
2023-08-02T15:30:20.235Z,25.26
2023-08-02T15:32:48.289Z,25.54
2023-08-02T15:35:14.936Z,25.55
2023-08-02T15:37:43.984Z,25.52
2023-08-02T15:40:11.867Z,25.53
2023-08-02T15:42:39.895Z,25.42
2023-08-02T15:45:07.365Z,25.03
2023-08-02T15:47:34.280Z,25.24
2023-08-02T15:50:00.814Z,24.62
2023-08-02T15:52:27.439Z,23.97
2023-08-02T15:54:54.004Z,23.48
2023-08-02T15:57:20.707Z,23.07
2023-08-02T15:59:48.787Z,22.97
2023-08-02T16:02:15.644Z,23.43
2023-08-02T16:04:42.539Z,23.76
2023-08-02T16:07:09.109Z,24.49
2023-08-02T16:09:35.744Z,24.85
2023-08-02T16:12:02.556Z,24.68
2023-08-02T16:14:29.458Z,24.43
2023-08-02T16:16:57.805Z,24.33
2023-08-02T16:19:24.668Z,24.24
2023-08-02T16:21:51.506Z,24.40
2023-08-02T16:24:21.928Z,24.69
2023-08-02T16:26:51.391Z,24.51
2023-08-02T16:29:18.252Z,24.33
2023-08-02T16:31:45.023Z,24.17
2023-08-02T16:34:13.501Z,24.18
2023-08-02T16:36:40.099Z,24.06
2023-08-02T16:39:07.011Z,24.17
2023-08-02T16:41:33.760Z,24.23
2023-08-02T16:44:00.403Z,24.30
2023-08-02T16:46:27.372Z,24.43
2023-08-02T16:48:53.971Z,24.64
2023-08-02T16:51:23.536Z,24.70
2023-08-02T16:53:55.990Z,24.70
2023-08-02T16:56:22.620Z,24.56
2023-08-02T16:58:51.190Z,24.47
2023-08-02T17:01:17.894Z,24.20
2023-08-02T17:03:44.687Z,24.00
2023-08-02T17:06:11.500Z,23.67
2023-08-02T17:08:39.504Z,23.63
2023-08-02T17:11:06.188Z,23.63
2023-08-02T17:13:33.061Z,23.67
2023-08-02T17:15:59.697Z,23.88
2023-08-02T17:18:26.515Z,24.02
2023-08-02T17:20:53.218Z,23.95
2023-08-02T17:23:20.004Z,23.86
2023-08-02T17:25:48.232Z,23.93
2023-08-02T17:28:14.913Z,23.89
2023-08-02T17:30:41.908Z,23.78
2023-08-02T17:33:08.711Z,23.39
2023-08-02T17:35:35.445Z,23.14
2023-08-02T17:38:02.042Z,23.11
2023-08-02T17:40:31.948Z,22.69
2023-08-02T17:43:01.626Z,22.53
2023-08-02T17:45:33.404Z,22.42
2023-08-02T17:48:00.303Z,22.42
2023-08-02T17:50:29.381Z,22.33
2023-08-02T17:52:55.995Z,21.89
2023-08-02T17:55:25.651Z,21.77
2023-08-02T17:57:52.355Z,21.70
2023-08-02T18:00:21.613Z,21.68
2023-08-02T18:02:48.516Z,21.20
2023-08-02T18:05:15.228Z,21.02
2023-08-02T18:07:42.455Z,20.94
2023-08-02T18:10:09.277Z,20.72
2023-08-02T18:12:36.889Z,20.82
2023-08-02T18:15:04.193Z,21.11
2023-08-02T18:17:38.243Z,21.22
2023-08-02T18:20:06.000Z,21.17
2023-08-02T18:22:32.629Z,21.32
2023-08-02T18:24:59.257Z,21.41
2023-08-02T18:27:25.987Z,21.27
2023-08-02T18:29:52.764Z,21.38
2023-08-02T18:32:19.480Z,21.36
2023-08-02T18:34:47.670Z,21.24
2023-08-02T18:37:14.343Z,21.26
2023-08-02T18:39:41.003Z,21.25
2023-08-02T18:42:07.675Z,21.27
2023-08-02T18:44:34.662Z,21.22
2023-08-02T18:47:01.305Z,21.18
2023-08-02T18:49:28.042Z,20.99
2023-08-02T18:51:56.262Z,20.79
2023-08-02T18:54:25.398Z,20.57
2023-08-02T18:56:52.241Z,20.32
2023-08-02T18:59:18.900Z,20.32
2023-08-02T19:01:45.913Z,20.29
2023-08-02T19:04:12.967Z,20.08
2023-08-02T19:06:39.856Z,20.02
2023-08-02T19:09:11.170Z,19.88
2023-08-02T19:11:38.008Z,19.85
2023-08-02T19:14:09.880Z,19.66
2023-08-02T19:16:36.600Z,19.53
2023-08-02T19:19:03.867Z,19.69
2023-08-02T19:21:36.361Z,19.55
2023-08-02T19:24:03.296Z,19.63
2023-08-02T19:26:31.336Z,19.69
2023-08-02T19:28:57.972Z,19.79
2023-08-02T19:31:25.832Z,19.87
2023-08-02T19:33:52.561Z,19.72
2023-08-02T19:36:23.332Z,19.80
2023-08-02T19:38:50.700Z,19.84
2023-08-02T19:41:26.364Z,19.79
2023-08-02T19:43:56.030Z,19.85
2023-08-02T19:46:24.552Z,19.68
2023-08-02T19:48:51.318Z,19.53
2023-08-02T19:51:17.997Z,19.74
2023-08-02T19:53:45.346Z,19.58
2023-08-02T19:56:18.220Z,19.48
2023-08-02T19:58:46.849Z,19.48
2023-08-02T20:01:15.017Z,19.33
2023-08-02T20:03:42.000Z,19.45
2023-08-02T20:06:08.803Z,19.55
2023-08-02T20:08:36.494Z,19.65
2023-08-02T20:11:04.986Z,19.74
2023-08-02T20:13:36.201Z,19.57
2023-08-02T20:16:06.231Z,19.72
2023-08-02T20:18:37.540Z,19.80
2023-08-02T20:21:20.501Z,19.83
2023-08-02T20:23:49.242Z,19.90
2023-08-02T20:26:21.650Z,19.87
2023-08-02T20:28:51.420Z,19.58
2023-08-02T20:31:20.019Z,19.65
2023-08-02T20:33:49.864Z,19.74
2023-08-02T20:36:18.127Z,19.59
2023-08-02T20:38:47.572Z,19.48
2023-08-02T20:41:18.411Z,19.55
2023-08-02T20:43:46.126Z,19.38
2023-08-02T20:46:16.504Z,19.40
2023-08-02T20:48:43.406Z,19.58
2023-08-02T20:51:15.414Z,19.58
2023-08-02T20:53:42.565Z,19.47
2023-08-02T20:56:10.289Z,19.44
2023-08-02T20:58:38.383Z,19.32
2023-08-02T21:01:05.483Z,19.22
2023-08-02T21:03:35.247Z,19.17
2023-08-02T21:06:06.014Z,19.08
2023-08-02T21:08:34.853Z,19.18
2023-08-02T21:11:01.641Z,19.27
2023-08-02T21:13:28.510Z,19.30
2023-08-02T21:15:56.817Z,19.26
2023-08-02T21:18:29.823Z,19.22
2023-08-02T21:20:59.671Z,19.21
2023-08-02T21:23:26.503Z,18.95
2023-08-02T21:25:57.231Z,19.08
2023-08-02T21:28:25.360Z,19.10
2023-08-02T21:30:55.508Z,19.25
2023-08-02T21:33:22.677Z,19.37
2023-08-02T21:35:52.360Z,19.28
2023-08-02T21:38:23.346Z,19.10
2023-08-02T21:40:54.664Z,19.22
2023-08-02T21:43:24.652Z,19.02
2023-08-02T21:45:56.609Z,19.23
2023-08-02T21:48:23.850Z,19.29
2023-08-02T21:50:53.412Z,19.27
2023-08-02T21:53:22.185Z,19.26
2023-08-02T21:55:50.496Z,19.09
2023-08-02T21:58:21.029Z,19.14
2023-08-02T22:00:51.947Z,19.24
2023-08-02T22:03:18.641Z,19.29
2023-08-02T22:05:45.740Z,19.28
2023-08-02T22:08:28.257Z,18.98
2023-08-02T22:10:54.898Z,18.96
2023-08-02T22:13:24.995Z,18.82
2023-08-02T22:15:52.979Z,18.95
2023-08-02T22:18:19.738Z,19.09
2023-08-02T22:20:46.359Z,18.85
2023-08-02T22:23:13.051Z,18.97
2023-08-02T22:25:39.847Z,18.82
2023-08-02T22:28:06.648Z,18.95
2023-08-02T22:30:33.325Z,18.89
2023-08-02T22:33:07.044Z,18.94
2023-08-02T22:35:34.064Z,18.78
2023-08-02T22:38:00.660Z,18.80
2023-08-02T22:40:27.314Z,18.76
2023-08-02T22:42:54.042Z,18.79
2023-08-02T22:45:20.652Z,18.70
2023-08-02T22:47:50.471Z,18.66
2023-08-02T22:52:53.373Z,18.69
2023-08-02T22:55:20.161Z,18.77
2023-08-02T22:57:47.396Z,18.92
2023-08-02T23:00:19.710Z,18.63
2023-08-02T23:02:46.449Z,18.65
2023-08-02T23:05:44.521Z,18.60
2023-08-02T23:08:11.317Z,18.63
2023-08-02T23:10:40.048Z,18.68
2023-08-02T23:13:10.313Z,18.68
2023-08-02T23:15:37.680Z,18.54
2023-08-02T23:18:05.649Z,18.52
2023-08-02T23:20:40.121Z,18.40
2023-08-02T23:23:18.247Z,18.65
2023-08-02T23:25:47.776Z,18.71
2023-08-02T23:28:15.192Z,18.57
2023-08-02T23:30:51.002Z,18.55
2023-08-02T23:33:17.749Z,18.60
2023-08-02T23:35:44.367Z,18.84
2023-08-02T23:38:12.351Z,18.47
2023-08-02T23:40:39.165Z,18.49
2023-08-02T23:43:06.029Z,18.45
2023-08-02T23:45:32.919Z,18.33
2023-08-02T23:47:59.629Z,18.68
2023-08-02T23:50:26.579Z,18.45
2023-08-02T23:52:53.221Z,18.61
2023-08-02T23:55:22.348Z,18.46
2023-08-02T23:57:48.991Z,18.53
